Time;durP1;ratioP1;P1;durP2;ratioP2;P2;SDS_P1;SDS_P2;PMS_P1;PMS_P2;Temp;Humidity;BMP_temperature;BMP_pressure;BME280_temperature;BME280_humidity;BME280_pressure;Samples;Min_cycle;Max_cycle;Signal;HPM_P1;HPM_P2
2021/06/02 00:00:16;;;;;;;3.67;2.42;;;;;;;10.00;100.00;94840.00;10442787;28;20799;-77
2021/06/02 00:05:18;;;;;;;2.75;1.70;;;;;;;10.00;100.00;94829.25;10441046;28;20032;-77
2021/06/02 00:10:19;;;;;;;2.72;1.92;;;;;;;10.07;100.00;94823.63;10442511;28;20515;-77
2021/06/02 00:15:20;;;;;;;1.40;1.30;;;;;;;10.12;100.00;94822.81;10442070;28;20037;-77
2021/06/02 00:20:21;;;;;;;1.65;1.48;;;;;;;10.14;100.00;94813.44;10442662;28;20465;-77
2021/06/02 00:25:21;;;;;;;7.43;1.60;;;;;;;9.97;100.00;94807.53;10442429;28;20099;-74
2021/06/02 00:30:22;;;;;;;2.20;1.73;;;;;;;10.05;100.00;94809.69;10441855;28;20090;-76
2021/06/02 00:35:24;;;;;;;1.45;1.15;;;;;;;9.94;100.00;94806.16;10440835;28;20032;-77
2021/06/02 00:40:34;;;;;;;1.23;0.88;;;;;;;9.83;100.00;94817.97;10442551;28;20098;-77
2021/06/02 00:45:34;;;;;;;2.47;1.08;;;;;;;9.77;100.00;94813.66;10440825;28;20043;-77
2021/06/02 00:50:35;;;;;;;2.53;0.80;;;;;;;9.80;100.00;94816.63;10441824;28;20040;-77
2021/06/02 00:55:35;;;;;;;2.50;1.10;;;;;;;9.89;100.00;94816.91;10442961;28;20100;-77
2021/06/02 01:00:37;;;;;;;1.17;0.90;;;;;;;10.00;100.00;94818.50;10441131;28;20397;-77
2021/06/02 01:05:37;;;;;;;1.10;1.00;;;;;;;10.09;100.00;94816.94;10442681;28;20373;-74
2021/06/02 01:10:38;;;;;;;3.13;1.10;;;;;;;10.12;100.00;94829.00;10440673;28;20025;-79
2021/06/02 01:15:39;;;;;;;2.15;1.40;;;;;;;10.12;100.00;94825.50;10444622;28;20306;-78
2021/06/02 01:20:40;;;;;;;2.17;1.08;;;;;;;10.23;100.00;94817.19;10450001;28;20461;-79
2021/06/02 01:25:42;;;;;;;1.08;0.98;;;;;;;10.19;100.00;94813.44;10454371;28;20057;-78
2021/06/02 01:30:42;;;;;;;1.33;1.17;;;;;;;10.26;100.00;94810.47;10452277;28;20025;-79
2021/06/02 01:36:12;;;;;;;6.17;1.30;;;;;;;10.20;100.00;94815.06;10452543;28;20021;-76
2021/06/02 01:41:29;;;;;;;2.10;1.20;;;;;;;10.10;100.00;94817.72;10453272;28;20029;-79
2021/06/02 01:47:14;;;;;;;2.97;1.20;;;;;;;9.94;100.00;94821.50;10452945;28;20423;-78
2021/06/02 01:52:29;;;;;;;2.65;1.60;;;;;;;9.75;100.00;94814.75;10436319;28;20048;-78
2021/06/02 01:58:16;;;;;;;3.78;1.95;;;;;;;9.61;100.00;94827.03;10453308;28;20090;-79
2021/06/02 02:03:54;;;;;;;18.65;2.08;;;;;;;9.46;100.00;94819.78;10453729;28;20036;-79
2021/06/02 02:09:12;;;;;;;3.72;1.88;;;;;;;9.37;100.00;94821.34;10455226;28;20537;-79
2021/06/02 02:14:41;;;;;;;2.50;2.03;;;;;;;9.30;100.00;94821.59;10453049;28;20020;-79
2021/06/02 02:19:45;;;;;;;2.70;1.88;;;;;;;9.26;100.00;94825.84;10451911;28;20284;-78
2021/06/02 02:25:00;;;;;;;2.10;1.90;;;;;;;9.16;100.00;94833.88;10452586;28;20045;-79
2021/06/02 02:30:22;;;;;;;5.80;2.60;;;;;;;9.18;100.00;94839.75;10452993;28;20689;-79
2021/06/02 02:35:35;;;;;;;3.45;2.85;;;;;;;9.27;100.00;94842.78;10452627;28;20028;-77
2021/06/02 02:40:44;;;;;;;3.33;2.97;;;;;;;9.39;100.00;94851.38;10452305;28;20033;-78
2021/06/02 02:45:55;;;;;;;4.30;3.40;;;;;;;9.43;100.00;94857.84;10450494;28;20053;-78
2021/06/02 02:51:14;;;;;;;6.32;3.17;;;;;;;9.51;100.00;94857.31;10451139;28;20420;-79
2021/06/02 02:56:25;;;;;;;6.78;4.53;;;;;;;9.60;100.00;94848.78;10451409;28;20029;-79
2021/06/02 03:01:38;;;;;;;8.50;5.13;;;;;;;9.68;100.00;94853.63;10445216;28;20115;-79
2021/06/02 03:06:44;;;;;;;12.80;6.63;;;;;;;9.77;100.00;94856.59;10445948;28;20114;-78
2021/06/02 03:11:51;;;;;;;9.82;7.22;;;;;;;9.84;100.00;94863.34;10447692;28;20060;-78
2021/06/02 03:16:58;;;;;;;10.88;7.63;;;;;;;9.98;100.00;94855.59;10450332;28;20385;-79
2021/06/02 03:22:04;;;;;;;15.77;7.70;;;;;;;9.98;100.00;94852.91;10451018;28;20032;-79
2021/06/02 03:27:17;;;;;;;12.48;7.13;;;;;;;9.87;100.00;94862.81;10452225;28;20078;-79
2021/06/02 03:32:55;;;;;;;10.48;7.72;;;;;;;9.73;100.00;94875.91;10451603;28;20036;-79
2021/06/02 03:38:04;;;;;;;12.20;8.25;;;;;;;9.78;100.00;94879.69;10447107;28;20079;-79
2021/06/02 03:43:29;;;;;;;20.13;8.20;;;;;;;9.80;100.00;94886.41;10450027;28;20037;-79
2021/06/02 03:48:48;;;;;;;14.73;9.05;;;;;;;9.83;100.00;94901.19;10452265;28;20033;-79
2021/06/02 03:54:10;;;;;;;16.77;9.07;;;;;;;9.75;100.00;94905.16;10450917;28;20067;-79
2021/06/02 03:59:39;;;;;;;15.27;9.48;;;;;;;9.83;100.00;94906.56;10457925;28;20087;-80
2021/06/02 04:05:15;;;;;;;12.73;9.65;;;;;;;9.92;100.00;94915.69;10447324;28;20548;-79
2021/06/02 04:10:35;;;;;;;25.38;9.93;;;;;;;10.31;100.00;94920.63;10440710;28;20028;-74
2021/06/02 04:15:37;;;;;;;12.18;9.02;;;;;;;10.73;100.00;94922.28;10441001;28;20025;-74
2021/06/02 04:20:44;;;;;;;24.17;13.65;;;;;;;10.86;100.00;94925.53;10441437;28;20710;-74
2021/06/02 04:25:46;;;;;;;15.23;9.65;;;;;;;11.14;100.00;94932.19;10440942;28;20037;-74
2021/06/02 04:30:49;;;;;;;18.15;9.52;;;;;;;11.55;100.00;94942.06;10402791;28;20029;-74
2021/06/02 04:35:51;;;;;;;17.95;10.75;;;;;;;11.81;100.00;94940.09;10400332;28;20021;-71
2021/06/02 04:40:54;;;;;;;13.40;8.50;;;;;;;12.34;100.00;94939.59;10397941;28;20039;-73
2021/06/02 04:46:00;;;;;;;13.02;8.65;;;;;;;12.45;100.00;94940.34;10397304;28;20053;-73
2021/06/02 04:51:40;;;;;;;15.50;9.00;;;;;;;12.07;100.00;94946.22;10398812;28;20587;-73
2021/06/02 04:56:43;;;;;;;17.63;10.63;;;;;;;12.14;100.00;94946.69;10404814;28;20063;-72
2021/06/02 05:02:11;;;;;;;20.48;9.60;;;;;;;11.98;100.00;94945.16;10407505;28;20029;-73
2021/06/02 05:07:42;;;;;;;17.13;8.95;;;;;;;11.88;100.00;94945.97;10405469;28;20021;-73
2021/06/02 05:13:10;;;;;;;14.73;9.38;;;;;;;11.95;100.00;94949.22;10406303;28;20141;-72
2021/06/02 05:18:34;;;;;;;20.63;11.17;;;;;;;11.83;100.00;94956.75;10406697;28;20382;-72
2021/06/02 05:23:53;;;;;;;15.60;9.88;;;;;;;11.91;100.00;94950.00;10406837;28;20634;-72
2021/06/02 05:29:14;;;;;;;16.48;11.02;;;;;;;11.96;100.00;94960.81;10406423;28;20136;-72
2021/06/02 05:34:55;;;;;;;17.75;9.82;;;;;;;12.05;100.00;94964.50;10404769;28;20037;-72
2021/06/02 05:39:56;;;;;;;15.77;8.02;;;;;;;12.29;100.00;94963.84;10406222;28;20133;-72
2021/06/02 05:45:27;;;;;;;14.13;8.80;;;;;;;12.56;100.00;94954.53;10405597;28;20619;-72
2021/06/02 05:51:08;;;;;;;14.20;8.52;;;;;;;12.67;100.00;94960.66;10404030;28;20033;-72
2021/06/02 05:56:27;;;;;;;12.25;7.90;;;;;;;12.45;100.00;94949.22;10405699;28;20378;-72
2021/06/02 06:01:42;;;;;;;15.30;8.48;;;;;;;12.60;100.00;94953.72;10405004;28;20876;-72
2021/06/02 06:06:45;;;;;;;8.77;6.43;;;;;;;13.12;100.00;94956.81;10404964;28;20401;-72
2021/06/02 06:12:05;;;;;;;10.45;7.20;;;;;;;13.74;100.00;94956.19;10404751;28;20029;-72
2021/06/02 06:17:28;;;;;;;11.43;6.30;;;;;;;14.27;100.00;94957.19;10404554;28;20413;-72
2021/06/02 06:22:34;;;;;;;10.40;6.32;;;;;;;14.77;100.00;94954.88;10404253;28;20038;-73
2021/06/02 06:27:40;;;;;;;8.60;4.70;;;;;;;15.41;100.00;94967.13;10401587;28;20111;-72
2021/06/02 06:32:44;;;;;;;10.85;5.32;;;;;;;15.67;100.00;94967.44;10403200;28;20421;-72
2021/06/02 06:37:47;;;;;;;6.55;4.57;;;;;;;15.65;100.00;94970.47;10402709;28;20404;-72
2021/06/02 06:42:53;;;;;;;12.20;5.78;;;;;;;15.41;100.00;94973.34;10401311;28;20124;-72
2021/06/02 06:47:55;;;;;;;10.10;5.70;;;;;;;15.61;100.00;94979.50;10402254;28;20417;-72
2021/06/02 06:53:01;;;;;;;11.15;5.60;;;;;;;16.30;100.00;94976.81;10402026;28;20075;-73
2021/06/02 06:58:04;;;;;;;9.82;5.55;;;;;;;17.16;100.00;94963.53;10401423;28;20029;-72
2021/06/02 07:03:06;;;;;;;7.93;4.13;;;;;;;19.74;85.37;94962.28;10402887;28;20447;-73
2021/06/02 07:08:08;;;;;;;6.60;3.67;;;;;;;22.14;65.19;94958.66;10401784;28;20392;-73
2021/06/02 07:13:10;;;;;;;6.30;3.60;;;;;;;23.71;53.56;94951.91;10401466;28;20029;-73
2021/06/02 07:18:15;;;;;;;4.35;2.90;;;;;;;23.53;49.35;94954.19;10400306;28;20029;-73
2021/06/02 07:23:16;;;;;;;8.43;2.92;;;;;;;24.87;48.14;94950.00;10401740;28;20086;-72
2021/06/02 07:28:33;;;;;;;21.45;4.68;;;;;;;26.02;43.85;94938.47;10400165;28;20564;-72
2021/06/02 07:33:35;;;;;;;5.35;2.70;;;;;;;25.47;44.57;94935.13;10401059;28;20029;-72
2021/06/02 07:38:36;;;;;;;15.07;2.92;;;;;;;27.08;40.90;94928.63;10401243;28;20101;-72
2021/06/02 07:43:36;;;;;;;5.17;2.50;;;;;;;26.19;40.94;94922.59;10402209;28;20119;-72
2021/06/02 07:48:36;;;;;;;4.43;2.27;;;;;;;26.35;41.31;94928.00;10401390;28;20029;-72
2021/06/02 07:53:37;;;;;;;4.50;2.27;;;;;;;27.66;40.00;94922.97;10400989;28;20033;-73
2021/06/02 07:58:39;;;;;;;3.37;2.07;;;;;;;27.44;37.66;94920.78;10400410;28;20403;-73
2021/06/02 08:03:39;;;;;;;3.85;1.98;;;;;;;24.36;42.47;94928.81;10400192;28;20304;-72
2021/06/02 08:08:40;;;;;;;4.72;2.67;;;;;;;24.67;42.92;94925.22;10399458;28;20033;-72
2021/06/02 08:13:40;;;;;;;8.57;3.03;;;;;;;25.49;43.11;94932.78;10399244;28;20112;-72
2021/06/02 08:18:40;;;;;;;4.13;1.97;;;;;;;24.34;45.38;94928.38;10400351;28;20029;-72
2021/06/02 08:23:41;;;;;;;4.90;2.07;;;;;;;21.76;54.08;94935.16;10400282;28;20037;-73
2021/06/02 08:28:41;;;;;;;8.13;2.03;;;;;;;21.61;51.74;94935.81;10402020;28;20304;-73
2021/06/02 08:33:43;;;;;;;5.10;2.07;;;;;;;19.92;59.29;94938.50;10408969;28;20379;-73
2021/06/02 08:38:43;;;;;;;5.18;2.17;;;;;;;20.79;63.99;94940.72;10407960;28;20128;-73
2021/06/02 08:43:46;;;;;;;6.77;2.13;;;;;;;24.06;48.92;94919.09;10406701;28;20116;-73
2021/06/02 08:48:49;;;;;;;5.55;1.80;;;;;;;24.72;42.80;94935.94;10407606;28;20033;-73
2021/06/02 08:53:50;;;;;;;4.60;2.33;;;;;;;21.09;51.90;94928.91;10406866;28;20037;-73
2021/06/02 08:58:50;;;;;;;5.82;2.38;;;;;;;22.54;49.23;94921.59;10405597;28;20514;-73
2021/06/02 09:03:51;;;;;;;4.03;1.67;;;;;;;22.24;52.31;94924.56;10407029;28;20057;-72
2021/06/02 09:08:53;;;;;;;7.07;2.00;;;;;;;23.37;45.76;94926.69;10405448;28;20033;-72
2021/06/02 09:13:54;;;;;;;2.70;1.90;;;;;;;22.38;47.57;94940.66;10406945;28;20053;-73
2021/06/02 09:19:04;;;;;;;2.17;1.87;;;;;;;21.63;50.24;94928.88;10406252;28;20042;-72
2021/06/02 09:24:05;;;;;;;11.18;2.92;;;;;;;23.26;45.61;94926.44;10408254;28;20636;-73
2021/06/02 09:29:11;;;;;;;3.38;1.50;;;;;;;24.67;47.64;94919.75;10407957;28;20046;-73
2021/06/02 09:34:14;;;;;;;6.35;1.88;;;;;;;26.77;38.55;94910.50;10405634;28;20038;-73
2021/06/02 09:39:21;;;;;;;3.35;1.77;;;;;;;29.16;36.35;94905.94;10405372;28;20033;-74
2021/06/02 09:44:26;;;;;;;5.93;1.50;;;;;;;26.95;35.92;94908.75;10405830;28;20033;-73
2021/06/02 09:49:27;;;;;;;3.85;1.98;;;;;;;24.23;42.22;94914.38;10405700;28;20024;-72
2021/06/02 09:54:27;;;;;;;3.78;1.88;;;;;;;21.94;45.24;94924.00;10405402;28;20029;-73
2021/06/02 09:59:28;;;;;;;9.33;2.10;;;;;;;22.46;51.37;94919.78;10405033;28;20030;-73
2021/06/02 10:04:33;;;;;;;7.73;1.60;;;;;;;24.94;42.05;94919.91;10405243;28;20315;-73
2021/06/02 10:09:35;;;;;;;5.00;1.77;;;;;;;23.31;43.82;94928.13;10405105;28;20021;-73
2021/06/02 10:14:38;;;;;;;4.43;1.50;;;;;;;22.41;47.56;94920.00;10404470;28;20026;-73
2021/06/02 10:19:43;;;;;;;3.00;2.00;;;;;;;21.65;49.79;94928.53;10404344;28;20033;-73
2021/06/02 10:24:44;;;;;;;5.18;1.95;;;;;;;20.35;55.70;94931.22;10403461;28;20045;-73
2021/06/02 10:29:45;;;;;;;15.25;2.58;;;;;;;19.96;61.56;94934.78;10404021;28;20025;-73
2021/06/02 10:34:47;;;;;;;4.93;2.35;;;;;;;19.21;61.83;94928.91;10403580;28;20512;-73
2021/06/02 10:40:00;;;;;;;4.78;2.30;;;;;;;18.82;64.35;94934.19;10402898;28;20022;-73
2021/06/02 10:45:08;;;;;;;5.53;2.63;;;;;;;18.69;64.16;94933.22;10401646;28;20045;-73
2021/06/02 10:50:28;;;;;;;4.32;2.90;;;;;;;18.93;70.83;94937.41;10406266;28;20032;-73
2021/06/02 10:55:37;;;;;;;4.93;2.17;;;;;;;19.19;70.88;94928.44;10401382;28;20044;-73
2021/06/02 11:00:38;;;;;;;4.60;2.40;;;;;;;19.19;66.44;94933.88;10405690;28;20033;-73
2021/06/02 11:05:38;;;;;;;4.70;2.20;;;;;;;19.07;70.27;94939.97;10402076;28;20026;-73
2021/06/02 11:10:39;;;;;;;6.87;2.70;;;;;;;18.55;70.39;94940.75;10402060;28;20048;-73
2021/06/02 11:15:44;;;;;;;5.47;2.67;;;;;;;18.54;82.02;94945.38;10402257;28;20473;-73
2021/06/02 11:20:55;;;;;;;7.35;3.00;;;;;;;18.59;83.53;94928.91;10401134;28;20324;-73
2021/06/02 11:26:23;;;;;;;13.48;3.13;;;;;;;18.58;78.43;94938.19;10399801;28;20044;-73
2021/06/02 11:31:25;;;;;;;7.80;3.58;;;;;;;18.49;83.12;94940.09;10400598;28;20033;-73
2021/06/02 11:36:27;;;;;;;13.35;3.33;;;;;;;18.41;86.14;94949.06;10401488;28;20036;-73
2021/06/02 11:41:27;;;;;;;4.88;3.53;;;;;;;18.41;82.96;94938.16;10400993;28;20030;-73
2021/06/02 11:46:28;;;;;;;5.40;2.65;;;;;;;18.31;79.34;94942.00;10401350;28;20021;-73
2021/06/02 11:51:31;;;;;;;4.20;2.80;;;;;;;18.70;73.63;94931.28;10400753;28;20052;-73
2021/06/02 11:56:31;;;;;;;7.40;2.92;;;;;;;19.46;76.82;94929.97;10400800;28;20029;-73
2021/06/02 12:01:32;;;;;;;4.03;2.80;;;;;;;19.71;66.95;94930.22;10401039;28;20033;-73
2021/06/02 12:06:35;;;;;;;10.77;2.70;;;;;;;19.50;72.50;94930.13;10400367;28;20051;-73
2021/06/02 12:11:36;;;;;;;10.50;2.88;;;;;;;19.34;69.56;94936.09;10415526;28;20390;-73
2021/06/02 12:16:37;;;;;;;4.63;3.03;;;;;;;19.32;75.14;94926.63;10400600;28;20032;-73
2021/06/02 12:21:37;;;;;;;4.90;2.88;;;;;;;19.71;65.56;94928.28;10398594;28;20103;-73
2021/06/02 12:26:43;;;;;;;7.43;2.80;;;;;;;20.12;61.08;94940.50;10399409;28;20630;-73
2021/06/02 12:31:50;;;;;;;4.60;2.50;;;;;;;20.07;62.96;94932.47;10398434;28;20396;-73
2021/06/02 12:37:02;;;;;;;10.30;3.20;;;;;;;19.64;61.42;94930.72;10402164;28;20026;-73
2021/06/02 12:42:05;;;;;;;5.25;2.40;;;;;;;19.40;67.09;94937.50;10399611;28;20033;-73
2021/06/02 12:47:08;;;;;;;6.95;2.60;;;;;;;19.46;63.17;94938.94;10400508;28;20117;-73
2021/06/02 12:52:10;;;;;;;22.15;2.78;;;;;;;19.85;61.71;94933.53;10399127;28;20026;-73
2021/06/02 12:57:10;;;;;;;6.63;2.17;;;;;;;19.89;59.28;94930.97;10399190;28;20401;-73
2021/06/02 13:02:12;;;;;;;6.35;2.97;;;;;;;19.92;62.39;94941.22;10397338;28;20057;-73
2021/06/02 13:07:13;;;;;;;5.90;2.67;;;;;;;20.02;60.13;94945.50;10399034;28;20025;-73
2021/06/02 13:12:19;;;;;;;8.45;2.80;;;;;;;19.89;66.23;94953.56;10399346;28;20058;-73
2021/06/02 13:17:37;;;;;;;7.72;3.00;;;;;;;19.86;62.32;94953.44;10402961;28;20384;-73
2021/06/02 13:22:37;;;;;;;10.63;2.50;;;;;;;19.76;70.99;94951.84;10408181;28;20048;-73
2021/06/02 13:27:38;;;;;;;5.73;2.83;;;;;;;19.68;65.40;94955.41;10406060;28;20505;-73
2021/06/02 13:32:38;;;;;;;2.58;2.30;;;;;;;19.67;68.83;94951.88;10405438;28;20041;-73
2021/06/02 13:37:43;;;;;;;4.80;2.30;;;;;;;19.64;62.97;94947.06;10405774;28;20037;-73
2021/06/02 13:43:09;;;;;;;5.85;2.83;;;;;;;19.64;62.60;94944.34;10405555;28;20037;-73
2021/06/02 13:48:26;;;;;;;3.58;2.30;;;;;;;19.31;61.01;94950.34;10405262;28;20084;-73
2021/06/02 13:53:27;;;;;;;5.15;2.30;;;;;;;19.49;60.40;94950.31;10405497;28;20030;-73
2021/06/02 13:58:27;;;;;;;6.30;2.40;;;;;;;19.41;57.12;94946.47;10405094;28;20025;-73
2021/06/02 14:03:27;;;;;;;3.63;2.40;;;;;;;19.32;59.98;94954.69;10403862;28;20029;-73
2021/06/02 14:08:27;;;;;;;7.77;2.20;;;;;;;18.93;57.14;94946.38;10403745;28;20543;-73
2021/06/02 14:13:28;;;;;;;8.60;2.53;;;;;;;18.85;59.42;94946.34;10404090;28;20030;-73
2021/06/02 14:18:28;;;;;;;4.20;1.77;;;;;;;18.67;58.94;94951.81;10411951;28;20044;-76
2021/06/02 14:23:28;;;;;;;4.90;3.37;;;;;;;18.45;61.90;94945.38;10436055;28;20036;-75
2021/06/02 14:28:29;;;;;;;5.87;1.97;;;;;;;18.19;59.87;94955.41;10428472;28;20111;-75
2021/06/02 14:33:29;;;;;;;7.27;2.37;;;;;;;18.13;58.46;94957.47;10414660;28;20498;-73
2021/06/02 14:38:30;;;;;;;3.90;2.13;;;;;;;18.15;57.06;94957.16;10405088;28;20061;-74
2021/06/02 14:43:31;;;;;;;4.90;2.00;;;;;;;18.08;58.17;94955.72;10414957;28;20044;-73
2021/06/02 14:48:33;;;;;;;4.45;1.70;;;;;;;18.18;58.13;94954.63;10402390;28;20026;-73
2021/06/02 14:53:34;;;;;;;3.92;2.67;;;;;;;18.47;60.54;94961.38;10407902;28;20037;-73
2021/06/02 14:58:35;;;;;;;7.00;2.13;;;;;;;18.68;55.28;94963.50;10426906;28;20031;-73
2021/06/02 15:03:35;;;;;;;9.38;2.33;;;;;;;18.71;60.20;94960.94;10440824;28;20074;-73
2021/06/02 15:08:37;;;;;;;7.30;2.55;;;;;;;18.66;61.64;94952.94;10439842;28;20082;-73
2021/06/02 15:13:37;;;;;;;5.68;2.50;;;;;;;18.91;62.59;94956.81;10440581;28;20028;-73
2021/06/02 15:18:38;;;;;;;4.90;2.10;;;;;;;19.10;65.36;94961.94;10441423;28;20035;-73
2021/06/02 15:23:38;;;;;;;3.73;2.20;;;;;;;19.22;57.85;94958.53;10441229;28;20460;-73
2021/06/02 15:28:43;;;;;;;4.70;2.28;;;;;;;19.22;59.55;94963.19;10441385;28;20049;-73
2021/06/02 15:33:43;;;;;;;4.03;2.72;;;;;;;18.99;65.80;94962.56;10440930;28;20035;-73
2021/06/02 15:38:44;;;;;;;4.07;3.23;;;;;;;18.98;67.32;94969.13;10440309;28;20492;-73
2021/06/02 15:43:44;;;;;;;9.18;3.40;;;;;;;18.83;68.83;94964.94;10439826;28;20318;-73
2021/06/02 15:48:45;;;;;;;2.90;2.00;;;;;;;18.55;67.44;94957.88;10440350;28;20029;-73
2021/06/02 15:53:49;;;;;;;3.70;2.53;;;;;;;18.49;68.11;94961.06;10441440;28;20060;-73
2021/06/02 15:58:49;;;;;;;6.28;2.53;;;;;;;18.38;67.70;94968.75;10440526;28;20763;-73
2021/06/02 16:03:50;;;;;;;6.32;4.00;;;;;;;18.20;70.89;94976.84;10441173;28;20032;-73
2021/06/02 16:08:50;;;;;;;5.00;2.80;;;;;;;18.01;68.87;94987.19;10440113;28;20024;-73
2021/06/02 16:13:51;;;;;;;12.00;3.67;;;;;;;17.89;70.67;94991.28;10441670;28;20087;-73
2021/06/02 16:18:51;;;;;;;6.68;3.60;;;;;;;17.81;76.95;95000.19;10441240;28;20029;-73
2021/06/02 16:23:52;;;;;;;7.33;3.03;;;;;;;17.70;71.96;94996.94;10440808;28;20402;-73
2021/06/02 16:28:53;;;;;;;7.30;2.53;;;;;;;17.50;69.37;94997.44;10440540;28;20202;-73
2021/06/02 16:34:00;;;;;;;8.73;3.92;;;;;;;17.46;74.20;95010.06;10440799;28;20029;-73
2021/06/02 16:39:01;;;;;;;8.60;3.45;;;;;;;17.39;77.29;95014.00;10440496;28;20025;-73
2021/06/02 16:44:01;;;;;;;7.53;2.63;;;;;;;17.26;75.95;95023.03;10437279;28;20044;-73
2021/06/02 16:49:02;;;;;;;7.88;3.78;;;;;;;17.22;76.76;95027.50;10411972;28;20471;-73
2021/06/02 16:54:06;;;;;;;3.43;2.33;;;;;;;17.22;77.07;95038.34;10426184;28;20017;-73
2021/06/02 16:59:08;;;;;;;6.90;3.08;;;;;;;17.18;83.13;95040.06;10406985;28;20279;-72
2021/06/02 17:04:10;;;;;;;4.00;3.17;;;;;;;17.19;81.67;95047.09;10437628;28;20412;-74
2021/06/02 17:09:10;;;;;;;6.72;2.97;;;;;;;17.11;84.52;95045.09;10409761;28;20380;-71
2021/06/02 17:14:13;;;;;;;3.28;2.70;;;;;;;17.03;86.31;95054.81;10406040;28;20023;-72
2021/06/02 17:19:16;;;;;;;6.07;2.83;;;;;;;17.01;90.63;95052.41;10406484;28;20087;-73
2021/06/02 17:24:23;;;;;;;4.65;2.95;;;;;;;16.84;88.88;95061.16;10431144;28;20037;-72
2021/06/02 17:29:31;;;;;;;9.18;2.55;;;;;;;16.82;99.33;95063.34;10435120;28;20128;-72
2021/06/02 17:34:31;;;;;;;5.80;2.37;;;;;;;16.61;97.29;95056.78;10448970;28;20044;-73
2021/06/02 17:39:31;;;;;;;4.53;2.57;;;;;;;16.54;97.35;95062.59;10448122;28;20107;-73
2021/06/02 17:44:32;;;;;;;6.20;3.10;;;;;;;16.34;99.24;95064.63;10445742;28;20287;-73
2021/06/02 17:49:33;;;;;;;9.25;3.15;;;;;;;16.03;100.00;95065.22;10446963;28;20025;-73
2021/06/02 17:54:34;;;;;;;5.32;3.53;;;;;;;15.91;100.00;95072.19;10439606;28;20031;-73
2021/06/02 17:59:38;;;;;;;7.68;3.55;;;;;;;15.89;100.00;95069.78;10446974;28;20435;-78
2021/06/02 18:04:39;;;;;;;13.05;3.88;;;;;;;15.91;100.00;95066.78;10442784;28;20038;-80
2021/06/02 18:09:40;;;;;;;5.55;3.67;;;;;;;15.95;100.00;95057.78;10444646;28;20104;-80
2021/06/02 18:14:40;;;;;;;9.60;5.63;;;;;;;15.93;100.00;95064.59;10442005;28;20903;-72
2021/06/02 18:19:42;;;;;;;6.23;4.07;;;;;;;15.89;100.00;95076.03;10428710;28;20040;-73
2021/06/02 18:24:46;;;;;;;6.10;3.92;;;;;;;15.76;100.00;95065.91;10414823;28;20307;-73
2021/06/02 18:29:48;;;;;;;12.85;4.85;;;;;;;15.54;100.00;95078.22;10446043;28;20044;-73
2021/06/02 18:34:49;;;;;;;9.50;4.78;;;;;;;15.42;100.00;95088.72;10445111;28;20029;-75
2021/06/02 18:39:49;;;;;;;10.65;6.20;;;;;;;15.23;100.00;95096.84;10445574;28;20025;-73
2021/06/02 18:44:50;;;;;;;14.17;4.13;;;;;;;15.12;100.00;95106.22;10404424;28;20022;-72
2021/06/02 18:49:50;;;;;;;11.27;4.68;;;;;;;14.93;100.00;95109.72;10403971;28;20275;-72
2021/06/02 18:54:51;;;;;;;12.37;5.07;;;;;;;14.75;100.00;95103.19;10404089;28;20033;-73
2021/06/02 18:59:51;;;;;;;15.40;5.78;;;;;;;14.49;100.00;95122.38;10403298;28;20511;-73
2021/06/02 19:04:51;;;;;;;10.20;6.20;;;;;;;14.32;100.00;95132.88;10404905;28;20037;-72
2021/06/02 19:09:52;;;;;;;7.80;5.40;;;;;;;14.14;100.00;95129.00;10402354;28;20120;-73
2021/06/02 19:14:52;;;;;;;12.77;5.77;;;;;;;13.99;100.00;95133.44;10430860;28;20143;-72
2021/06/02 19:19:52;;;;;;;18.27;5.77;;;;;;;13.78;100.00;95138.22;10442621;28;20287;-73
2021/06/02 19:24:54;;;;;;;11.60;6.40;;;;;;;13.49;100.00;95141.72;10444177;28;20075;-73
2021/06/02 19:29:55;;;;;;;12.75;6.07;;;;;;;13.47;100.00;95140.38;10443313;28;20108;-72
2021/06/02 19:34:55;;;;;;;11.80;5.82;;;;;;;13.24;100.00;95147.25;10443165;28;20369;-72
2021/06/02 19:39:56;;;;;;;15.70;5.47;;;;;;;13.15;100.00;95160.53;10443143;28;20029;-72
2021/06/02 19:44:56;;;;;;;10.27;4.90;;;;;;;13.13;100.00;95159.97;10442333;28;20582;-72
2021/06/02 19:49:56;;;;;;;9.73;5.37;;;;;;;13.06;100.00;95157.63;10441827;28;20024;-72
2021/06/02 19:54:57;;;;;;;14.77;5.93;;;;;;;12.93;100.00;95161.69;10442451;28;20298;-73
2021/06/02 19:59:57;;;;;;;12.27;6.00;;;;;;;12.87;100.00;95160.13;10442762;28;20078;-71
2021/06/02 20:04:57;;;;;;;16.53;6.47;;;;;;;12.91;100.00;95158.50;10437225;28;20279;-72
2021/06/02 20:09:58;;;;;;;10.87;6.53;;;;;;;12.93;100.00;95156.31;10404137;28;20025;-72
2021/06/02 20:14:58;;;;;;;12.80;5.43;;;;;;;12.96;100.00;95154.94;10401027;28;20029;-72
2021/06/02 20:19:59;;;;;;;13.07;7.07;;;;;;;12.85;100.00;95150.69;10401790;28;20026;-76
2021/06/02 20:25:00;;;;;;;13.57;6.05;;;;;;;12.84;100.00;95155.28;10407526;28;20115;-78
2021/06/02 20:30:07;;;;;;;10.98;6.18;;;;;;;12.73;100.00;95159.91;10413074;28;20082;-76
2021/06/02 20:35:12;;;;;;;15.20;6.38;;;;;;;12.60;100.00;95155.94;10415356;28;20033;-76
2021/06/02 20:40:15;;;;;;;10.73;6.70;;;;;;;12.60;100.00;95164.03;10418501;28;20132;-76
2021/06/02 20:45:18;;;;;;;11.77;6.28;;;;;;;12.59;100.00;95158.91;10445125;28;20021;-76
2021/06/02 20:50:19;;;;;;;13.40;6.75;;;;;;;12.54;100.00;95161.59;10454958;28;20017;-76
2021/06/02 20:55:19;;;;;;;11.02;7.30;;;;;;;12.30;100.00;95167.59;10454662;28;20025;-75
2021/06/02 21:00:22;;;;;;;14.38;6.80;;;;;;;12.26;100.00;95163.84;10454744;28;20036;-76
2021/06/02 21:05:23;;;;;;;11.23;6.72;;;;;;;12.13;100.00;95166.00;10450406;28;20500;-76
2021/06/02 21:10:24;;;;;;;13.65;7.75;;;;;;;11.94;100.00;95170.34;10454591;28;20021;-76
2021/06/02 21:15:24;;;;;;;16.27;6.93;;;;;;;11.86;100.00;95174.38;10455208;28;20029;-76
2021/06/02 21:20:26;;;;;;;18.30;7.63;;;;;;;11.80;100.00;95176.25;10455346;28;20048;-76
2021/06/02 21:25:28;;;;;;;21.58;9.13;;;;;;;11.84;100.00;95170.34;10453514;28;20299;-76
2021/06/02 21:30:28;;;;;;;12.32;7.43;;;;;;;11.80;100.00;95173.56;10452664;28;20029;-76
2021/06/02 21:35:31;;;;;;;14.80;7.37;;;;;;;11.69;100.00;95168.44;10452195;28;20021;-76
2021/06/02 21:40:32;;;;;;;19.55;7.72;;;;;;;11.60;100.00;95170.88;10451691;28;20115;-76
2021/06/02 21:45:33;;;;;;;15.60;7.97;;;;;;;11.45;100.00;95159.00;10452976;28;20498;-76
2021/06/02 21:50:33;;;;;;;11.70;7.13;;;;;;;11.33;100.00;95155.78;10449789;28;20026;-75
2021/06/02 21:55:34;;;;;;;11.33;7.70;;;;;;;11.28;100.00;95153.88;10450463;28;20381;-76
2021/06/02 22:00:45;;;;;;;16.93;9.00;;;;;;;11.23;100.00;95151.19;10451054;28;20291;-76
2021/06/02 22:05:51;;;;;;;20.42;8.48;;;;;;;11.11;100.00;95159.50;10450786;28;20816;-76
2021/06/02 22:10:53;;;;;;;16.35;8.98;;;;;;;10.94;100.00;95162.41;10450378;28;20024;-76
2021/06/02 22:15:54;;;;;;;15.68;8.02;;;;;;;10.97;100.00;95157.56;10449112;28;20056;-76
2021/06/02 22:20:55;;;;;;;14.13;8.43;;;;;;;10.98;100.00;95154.66;10449686;28;20518;-76
2021/06/02 22:25:56;;;;;;;13.90;8.40;;;;;;;11.00;100.00;95149.00;10449705;28;20041;-76
2021/06/02 22:30:56;;;;;;;14.30;8.23;;;;;;;10.92;100.00;95153.00;10448009;28;20182;-76
2021/06/02 22:35:57;;;;;;;14.55;7.65;;;;;;;10.72;100.00;95148.38;10449485;28;20025;-77
2021/06/02 22:40:57;;;;;;;18.43;8.17;;;;;;;10.58;100.00;95150.75;10449697;28;20036;-76
2021/06/02 22:45:58;;;;;;;17.20;8.18;;;;;;;10.40;100.00;95150.09;10450284;28;20028;-77
2021/06/02 22:50:58;;;;;;;12.87;8.50;;;;;;;10.26;100.00;95141.69;10453500;28;20024;-77
2021/06/02 22:55:59;;;;;;;13.77;7.90;;;;;;;10.26;100.00;95140.88;10452421;28;20274;-77
2021/06/02 23:00:59;;;;;;;14.40;7.85;;;;;;;10.13;100.00;95146.72;10467602;28;20120;-77
2021/06/02 23:06:00;;;;;;;11.07;6.47;;;;;;;10.13;100.00;95138.66;10452265;28;20025;-77
2021/06/02 23:11:00;;;;;;;18.45;9.13;;;;;;;10.23;100.00;95133.34;10452253;28;20025;-78
2021/06/02 23:16:01;;;;;;;10.17;6.57;;;;;;;10.11;100.00;95127.38;10453547;28;20765;-77
2021/06/02 23:21:01;;;;;;;10.10;7.63;;;;;;;10.21;100.00;95138.16;10451883;28;20017;-77
2021/06/02 23:26:02;;;;;;;12.97;7.13;;;;;;;10.19;100.00;95134.94;10453138;28;20224;-77